Loading...
Biarritz Pays Basque Airport

LFBZ

Code AITA: BIQ

Biarritz, Aquitaine, France

6.0°

Rosée: 4.0

Vitesse du vent

9 kt

Direction: 10° /

Altimètre

29.76 Hg

QNH : 1008

LFBZ 100100Z AUTO 01009KT 9999 SCT014 BKN040 OVC049 06/04 Q1008 TEMPO 4000 BR BKN005


Biarritz Pays Basque Airport

Élévation

70.0 mètres

Ville

Anglet

Localisation

Nouvelle-Aquitaine

Pays

France

Nouvelle recherche